Time;durP1;ratioP1;P1;durP2;ratioP2;P2;SDS_P1;SDS_P2;PMS_P1;PMS_P2;Temp;Humidity;BMP_temperature;BMP_pressure;BME280_temperature;BME280_humidity;BME280_pressure;Samples;Min_cycle;Max_cycle;Signal;HPM_P1;HPM_P2
2022/01/25 00:31:10;;;;;;;63.65;36.45;;;;;;;;;;5007562;28;20398;-84
2022/01/25 00:33:37;;;;;;;66.45;37.92;;;;;;;;;;5010097;28;20443;-83
2022/01/25 00:36:04;;;;;;;70.38;37.85;;;;;;;;;;4992127;28;20402;-85
2022/01/25 00:38:30;;;;;;;67.75;37.00;;;;;;;;;;5010529;28;20050;-83
2022/01/25 00:40:56;;;;;;;67.28;37.42;;;;;;;;;;5000798;28;20080;-84
2022/01/25 00:43:24;;;;;;;67.20;37.20;;;;;;;;;;4996405;28;20493;-83
2022/01/25 00:45:53;;;;;;;72.90;37.85;;;;;;;;;;4994989;28;20128;-82
2022/01/25 00:48:30;;;;;;;64.45;37.22;;;;;;;;;;5000561;28;20072;-85
2022/01/25 00:51:17;;;;;;;70.40;37.72;;;;;;;;;;4976109;28;20093;-84
2022/01/25 00:53:58;;;;;;;66.45;36.10;;;;;;;;;;4988451;28;20802;-85
2022/01/25 00:56:25;;;;;;;72.70;39.03;;;;;;;;;;5006092;28;20046;-85
2022/01/25 00:58:52;;;;;;;66.97;37.72;;;;;;;;;;4990128;28;20042;-86
2022/01/25 01:01:19;;;;;;;63.03;34.83;;;;;;;;;;5002226;28;20045;-83
2022/01/25 01:03:45;;;;;;;72.50;39.85;;;;;;;;;;5008254;28;20046;-85
2022/01/25 01:06:11;;;;;;;67.07;38.05;;;;;;;;;;5007289;28;20049;-83
2022/01/25 01:08:38;;;;;;;68.88;39.55;;;;;;;;;;5010620;28;20390;-84
2022/01/25 01:11:08;;;;;;;68.90;36.55;;;;;;;;;;4989648;28;20044;-86
2022/01/25 01:17:04;;;;;;;71.22;37.63;;;;;;;;;;5005948;28;20065;-87
2022/01/25 01:40:33;;;;;;;71.75;38.97;;;;;;;;;;4988984;28;20132;-87
2022/01/25 01:48:31;;;;;;;65.63;37.30;;;;;;;;;;4988726;28;20050;-85
2022/01/25 01:51:05;;;;;;;66.43;36.60;;;;;;;;;;4990691;28;20060;-88
2022/01/25 01:53:31;;;;;;;70.60;38.38;;;;;;;;;;4990301;28;20048;-86
2022/01/25 01:55:57;;;;;;;70.82;39.47;;;;;;;;;;5009128;28;20085;-86
2022/01/25 01:58:23;;;;;;;69.38;37.75;;;;;;;;;;5002284;28;20038;-88
2022/01/25 02:00:50;;;;;;;70.20;39.05;;;;;;;;;;4989229;28;20087;-88
2022/01/25 02:03:16;;;;;;;65.47;37.92;;;;;;;;;;4990080;28;20563;-89
2022/01/25 02:05:42;;;;;;;70.00;36.95;;;;;;;;;;5007368;28;20099;-87
2022/01/25 02:08:09;;;;;;;71.35;38.75;;;;;;;;;;4978867;28;20050;-86
2022/01/25 02:10:35;;;;;;;70.20;38.08;;;;;;;;;;5007122;28;20557;-87
2022/01/25 02:13:03;;;;;;;73.78;39.15;;;;;;;;;;5007848;28;20046;-84
2022/01/25 02:15:30;;;;;;;92.10;47.63;;;;;;;;;;5004319;28;20057;-85
2022/01/25 02:23:18;;;;;;;72.45;37.47;;;;;;;;;;5005730;28;20041;-84
2022/01/25 02:25:48;;;;;;;73.25;39.38;;;;;;;;;;5006836;28;20073;-84
2022/01/25 02:28:15;;;;;;;69.38;39.42;;;;;;;;;;4985883;28;20100;-87
2022/01/25 02:30:41;;;;;;;68.85;39.28;;;;;;;;;;5007121;28;20046;-83
2022/01/25 02:33:07;;;;;;;74.05;39.63;;;;;;;;;;5003283;28;20052;-84
2022/01/25 02:35:33;;;;;;;66.25;37.65;;;;;;;;;;5006085;28;20030;-87
2022/01/25 02:37:59;;;;;;;74.32;39.35;;;;;;;;;;5006085;28;20465;-86
2022/01/25 02:40:26;;;;;;;73.60;39.28;;;;;;;;;;4971348;28;20092;-85
2022/01/25 02:42:53;;;;;;;68.82;38.17;;;;;;;;;;5006681;28;20049;-88
2022/01/25 02:45:19;;;;;;;76.78;39.33;;;;;;;;;;4987149;28;20053;-84
2022/01/25 02:50:30;;;;;;;72.00;39.83;;;;;;;;;;4986392;28;20053;-89
2022/01/25 02:52:57;;;;;;;66.95;38.45;;;;;;;;;;4988138;28;20124;-87
2022/01/25 02:55:23;;;;;;;71.57;39.42;;;;;;;;;;5006724;28;20049;-88
2022/01/25 02:57:50;;;;;;;70.45;39.05;;;;;;;;;;4987716;28;20046;-88
2022/01/25 03:00:16;;;;;;;66.53;39.85;;;;;;;;;;4988712;28;20071;-85
2022/01/25 03:02:42;;;;;;;69.35;38.15;;;;;;;;;;5008447;28;20748;-83
2022/01/25 03:05:09;;;;;;;68.85;38.58;;;;;;;;;;4989250;28;20086;-88
2022/01/25 03:07:37;;;;;;;68.50;39.35;;;;;;;;;;4972753;28;20042;-85
2022/01/25 03:10:04;;;;;;;73.85;40.13;;;;;;;;;;5002836;28;20689;-82
2022/01/25 03:12:53;;;;;;;72.35;39.22;;;;;;;;;;5006167;28;20498;-85
2022/01/25 03:17:50;;;;;;;72.95;40.35;;;;;;;;;;5004516;28;20084;-87
2022/01/25 03:20:33;;;;;;;71.88;38.67;;;;;;;;;;5002933;28;20046;-85
2022/01/25 03:23:05;;;;;;;66.90;37.63;;;;;;;;;;4988063;28;20121;-86
2022/01/25 03:25:31;;;;;;;72.82;38.85;;;;;;;;;;5005591;28;20054;-88
2022/01/25 03:27:57;;;;;;;71.88;38.03;;;;;;;;;;4985406;28;20124;-87
2022/01/25 03:30:27;;;;;;;70.13;38.92;;;;;;;;;;4988499;28;20057;-85
2022/01/25 03:32:53;;;;;;;67.18;37.88;;;;;;;;;;4970517;28;20042;-84
2022/01/25 03:35:19;;;;;;;78.15;39.75;;;;;;;;;;5004172;28;20030;-85
2022/01/25 03:37:45;;;;;;;72.18;41.35;;;;;;;;;;4986580;28;20037;-85
2022/01/25 03:40:12;;;;;;;67.13;36.83;;;;;;;;;;4988679;28;20129;-85
2022/01/25 03:42:39;;;;;;;72.78;38.83;;;;;;;;;;4987570;28;20057;-89
2022/01/25 03:45:06;;;;;;;72.53;40.17;;;;;;;;;;5005106;28;20136;-82
2022/01/25 03:47:45;;;;;;;69.75;39.03;;;;;;;;;;5003451;28;20046;-89
2022/01/25 03:50:12;;;;;;;71.25;38.83;;;;;;;;;;4985390;28;20049;-86
2022/01/25 03:52:38;;;;;;;70.95;40.90;;;;;;;;;;4986430;28;20062;-87
2022/01/25 03:55:05;;;;;;;72.70;39.58;;;;;;;;;;5004460;28;20565;-88
2022/01/25 03:57:31;;;;;;;71.50;38.53;;;;;;;;;;5004781;28;20049;-87
2022/01/25 03:59:59;;;;;;;77.60;41.22;;;;;;;;;;5003461;28;20080;-86
2022/01/25 04:02:27;;;;;;;72.60;40.47;;;;;;;;;;4987000;28;20065;-85
2022/01/25 04:04:53;;;;;;;68.50;38.45;;;;;;;;;;5005283;28;20053;-86
2022/01/25 04:07:28;;;;;;;65.47;37.40;;;;;;;;;;4986990;28;20041;-86
2022/01/25 04:09:54;;;;;;;68.75;39.40;;;;;;;;;;5004451;28;20585;-87
2022/01/25 04:12:20;;;;;;;70.53;38.15;;;;;;;;;;4986550;28;20113;-89
2022/01/25 04:14:47;;;;;;;72.22;37.10;;;;;;;;;;4988391;28;20041;-88
2022/01/25 04:17:18;;;;;;;71.75;38.90;;;;;;;;;;4987877;28;20157;-87
2022/01/25 04:19:56;;;;;;;68.28;38.42;;;;;;;;;;4988030;28;20096;-87
2022/01/25 04:25:14;;;;;;;;;;;;;;;;;;5003938;28;20107;-88
2022/01/25 04:27:40;;;;;;;73.13;39.00;;;;;;;;;;4988381;28;20456;-88
2022/01/25 04:30:07;;;;;;;76.43;41.10;;;;;;;;;;5008648;28;20537;-89
2022/01/25 04:32:41;;;;;;;71.45;39.50;;;;;;;;;;5010462;28;20053;-88
2022/01/25 04:35:11;;;;;;;71.47;39.25;;;;;;;;;;5009849;28;20037;-87
2022/01/25 04:59:32;;;;;;;71.47;39.55;;;;;;;;;;5003342;28;20050;-89
2022/01/25 05:02:07;;;;;;;79.15;40.15;;;;;;;;;;5008629;28;20096;-86
2022/01/25 05:04:40;;;;;;;67.47;39.13;;;;;;;;;;5009753;28;20088;-90
2022/01/25 05:09:46;;;;;;;69.60;39.05;;;;;;;;;;4988991;28;20045;-87
2022/01/25 05:12:13;;;;;;;74.85;39.67;;;;;;;;;;5006730;28;20084;-85
2022/01/25 05:14:56;;;;;;;72.82;40.38;;;;;;;;;;5006144;28;20057;-85
2022/01/25 05:17:31;;;;;;;73.97;40.58;;;;;;;;;;5005119;28;20144;-87
2022/01/25 05:22:42;;;;;;;73.70;39.92;;;;;;;;;;4975731;28;20096;-87
2022/01/25 05:25:08;;;;;;;75.13;41.63;;;;;;;;;;4988286;28;20049;-88
2022/01/25 05:27:34;;;;;;;72.85;39.15;;;;;;;;;;5004977;28;20134;-83
2022/01/25 05:30:00;;;;;;;75.38;40.25;;;;;;;;;;4988517;28;20053;-87
2022/01/25 05:32:27;;;;;;;73.28;39.85;;;;;;;;;;5006066;28;20509;-87
2022/01/25 05:34:54;;;;;;;72.55;41.20;;;;;;;;;;5006025;28;20053;-87
2022/01/25 05:37:20;;;;;;;71.45;40.55;;;;;;;;;;5003205;28;20493;-85
2022/01/25 05:39:47;;;;;;;74.80;39.67;;;;;;;;;;5006706;28;20074;-87
2022/01/25 05:42:22;;;;;;;72.93;40.50;;;;;;;;;;5001340;28;20528;-84
2022/01/25 05:47:18;;;;;;;74.65;39.78;;;;;;;;;;5004037;28;20076;-83
2022/01/25 05:49:45;;;;;;;76.20;41.92;;;;;;;;;;4989503;28;20081;-88
2022/01/25 05:52:11;;;;;;;72.82;41.70;;;;;;;;;;5002465;28;20113;-86
2022/01/25 05:54:39;;;;;;;73.05;39.28;;;;;;;;;;4986238;28;20096;-88
2022/01/25 05:57:05;;;;;;;75.97;40.47;;;;;;;;;;4983205;28;20041;-83
2022/01/25 05:59:32;;;;;;;75.07;39.42;;;;;;;;;;5000833;28;20069;-85
2022/01/25 06:01:58;;;;;;;73.65;41.33;;;;;;;;;;5007870;28;20046;-84
2022/01/25 06:04:24;;;;;;;73.47;40.83;;;;;;;;;;4984636;28;20131;-85
2022/01/25 06:06:51;;;;;;;76.07;41.70;;;;;;;;;;5004516;28;20046;-85
2022/01/25 06:09:17;;;;;;;71.10;40.00;;;;;;;;;;4999742;28;20042;-83
2022/01/25 06:11:43;;;;;;;78.80;41.60;;;;;;;;;;5000747;28;20133;-85
2022/01/25 06:14:09;;;;;;;76.72;39.67;;;;;;;;;;4983882;28;20405;-86
2022/01/25 06:16:35;;;;;;;77.30;41.97;;;;;;;;;;4987583;28;20076;-85
2022/01/25 06:19:02;;;;;;;78.38;42.60;;;;;;;;;;5003584;28;20470;-84
2022/01/25 06:21:28;;;;;;;69.10;40.80;;;;;;;;;;5003358;28;20034;-82
2022/01/25 06:23:54;;;;;;;80.05;40.47;;;;;;;;;;5003880;28;20462;-80
2022/01/25 06:26:21;;;;;;;78.15;39.35;;;;;;;;;;4999580;28;20103;-84
2022/01/25 06:28:47;;;;;;;79.03;41.72;;;;;;;;;;5001882;28;20581;-82
2022/01/25 06:31:15;;;;;;;77.63;40.10;;;;;;;;;;4981525;28;20064;-85
2022/01/25 06:33:42;;;;;;;72.78;39.38;;;;;;;;;;5003493;28;20050;-83
2022/01/25 06:36:08;;;;;;;77.35;41.05;;;;;;;;;;4986207;28;20112;-83
2022/01/25 06:38:34;;;;;;;72.50;41.03;;;;;;;;;;4966704;28;20046;-84
2022/01/25 06:41:01;;;;;;;83.57;42.13;;;;;;;;;;4998856;28;20121;-84
2022/01/25 06:43:27;;;;;;;75.68;41.15;;;;;;;;;;4985847;28;20049;-83
2022/01/25 06:46:00;;;;;;;84.53;41.05;;;;;;;;;;4990313;28;20100;-83
2022/01/25 06:48:26;;;;;;;72.90;40.63;;;;;;;;;;4983036;28;20099;-81
2022/01/25 06:50:55;;;;;;;80.45;41.75;;;;;;;;;;4999773;28;20053;-85
2022/01/25 06:53:21;;;;;;;76.32;41.05;;;;;;;;;;5004057;28;20056;-82
2022/01/25 06:55:47;;;;;;;74.07;39.90;;;;;;;;;;5003197;28;20846;-87
2022/01/25 06:58:14;;;;;;;72.72;40.35;;;;;;;;;;5005145;28;20660;-83
2022/01/25 07:00:40;;;;;;;72.63;39.53;;;;;;;;;;4994983;28;20046;-84
2022/01/25 07:03:07;;;;;;;75.80;41.40;;;;;;;;;;4996561;28;20045;-83
2022/01/25 07:05:33;;;;;;;75.38;41.00;;;;;;;;;;4980864;28;20509;-83
2022/01/25 07:08:00;;;;;;;74.82;40.60;;;;;;;;;;4996075;28;20054;-83
2022/01/25 07:10:27;;;;;;;76.53;39.90;;;;;;;;;;4998001;28;20501;-86
2022/01/25 07:12:53;;;;;;;77.03;41.15;;;;;;;;;;4964231;28;20044;-83
2022/01/25 07:15:19;;;;;;;78.57;41.35;;;;;;;;;;4999017;28;20429;-85
2022/01/25 07:17:46;;;;;;;74.35;40.10;;;;;;;;;;4967193;28;20053;-85
2022/01/25 07:20:12;;;;;;;77.88;40.75;;;;;;;;;;4999336;28;20080;-85
2022/01/25 07:22:40;;;;;;;77.55;39.38;;;;;;;;;;5000010;28;20046;-84
2022/01/25 07:25:06;;;;;;;73.78;40.55;;;;;;;;;;5001338;28;20077;-86
2022/01/25 07:27:32;;;;;;;78.72;42.03;;;;;;;;;;4999695;28;20046;-87
2022/01/25 07:29:59;;;;;;;79.18;40.60;;;;;;;;;;4969777;28;20034;-84
2022/01/25 07:32:27;;;;;;;74.85;39.47;;;;;;;;;;4996137;28;20516;-84
2022/01/25 07:34:54;;;;;;;81.07;42.95;;;;;;;;;;5001493;28;20069;-85
2022/01/25 07:37:20;;;;;;;73.93;40.40;;;;;;;;;;5005244;28;20037;-86
2022/01/25 07:39:47;;;;;;;81.50;42.63;;;;;;;;;;4976942;28;20523;-87
2022/01/25 07:42:15;;;;;;;78.20;40.83;;;;;;;;;;4994221;28;20046;-84
2022/01/25 07:44:41;;;;;;;75.90;40.08;;;;;;;;;;5000180;28;20042;-86
2022/01/25 07:47:07;;;;;;;77.25;41.08;;;;;;;;;;5006842;28;20096;-85
2022/01/25 07:49:34;;;;;;;80.05;42.47;;;;;;;;;;4988940;28;20049;-88
2022/01/25 07:52:00;;;;;;;71.95;39.53;;;;;;;;;;5004983;28;20510;-85
2022/01/25 07:54:27;;;;;;;80.32;41.15;;;;;;;;;;5007471;28;20556;-85
2022/01/25 07:56:53;;;;;;;82.13;41.40;;;;;;;;;;4987357;28;20038;-86
2022/01/25 07:59:19;;;;;;;77.63;41.90;;;;;;;;;;5007809;28;20077;-83
2022/01/25 08:01:45;;;;;;;80.45;41.08;;;;;;;;;;5009888;28;20046;-85
2022/01/25 08:04:14;;;;;;;77.63;40.83;;;;;;;;;;5010244;28;20049;-86
2022/01/25 08:06:40;;;;;;;76.60;41.65;;;;;;;;;;5008405;28;20057;-83
2022/01/25 08:09:07;;;;;;;78.18;40.65;;;;;;;;;;5003449;28;20705;-85
2022/01/25 08:11:33;;;;;;;82.30;42.10;;;;;;;;;;4990144;28;20057;-84
2022/01/25 08:14:11;;;;;;;78.90;40.85;;;;;;;;;;4971832;28;20033;-83
2022/01/25 08:16:38;;;;;;;73.95;40.58;;;;;;;;;;4988254;28;20053;-83
2022/01/25 08:19:04;;;;;;;75.82;39.70;;;;;;;;;;4988945;28;20046;-83
2022/01/25 08:21:30;;;;;;;79.72;41.03;;;;;;;;;;4975891;28;20110;-81
2022/01/25 08:23:56;;;;;;;77.75;41.72;;;;;;;;;;4989721;28;20060;-85
2022/01/25 08:26:22;;;;;;;83.97;41.58;;;;;;;;;;5006896;28;20571;-82
2022/01/25 08:28:48;;;;;;;80.75;42.05;;;;;;;;;;5000236;28;20058;-85
2022/01/25 08:31:14;;;;;;;79.90;41.13;;;;;;;;;;4988227;28;20037;-83
2022/01/25 08:33:40;;;;;;;80.82;41.88;;;;;;;;;;4986051;28;20099;-84
2022/01/25 08:36:07;;;;;;;80.97;41.50;;;;;;;;;;4987356;28;20037;-83
2022/01/25 08:38:33;;;;;;;89.00;42.88;;;;;;;;;;4990830;28;20502;-83
2022/01/25 08:40:59;;;;;;;75.70;40.85;;;;;;;;;;4988634;28;20592;-83
2022/01/25 08:43:25;;;;;;;79.32;39.58;;;;;;;;;;4990530;28;20049;-84
2022/01/25 08:45:51;;;;;;;80.80;41.70;;;;;;;;;;4986291;28;20535;-84
2022/01/25 08:48:17;;;;;;;78.47;43.03;;;;;;;;;;5008354;28;20092;-82
2022/01/25 08:50:43;;;;;;;78.38;42.63;;;;;;;;;;5005173;28;20053;-83
2022/01/25 08:53:11;;;;;;;79.22;42.22;;;;;;;;;;4984445;28;20046;-82
2022/01/25 08:55:37;;;;;;;80.82;44.38;;;;;;;;;;5005341;28;20417;-85
2022/01/25 08:58:03;;;;;;;80.78;44.20;;;;;;;;;;5005163;28;20124;-84
2022/01/25 09:00:29;;;;;;;81.53;42.97;;;;;;;;;;5004796;28;20042;-85
2022/01/25 09:02:55;;;;;;;75.72;40.17;;;;;;;;;;4981872;28;21603;-87
2022/01/25 09:05:22;;;;;;;81.85;42.47;;;;;;;;;;5007007;28;20169;-86
2022/01/25 09:07:48;;;;;;;75.03;41.35;;;;;;;;;;5001253;28;20053;-85
2022/01/25 09:10:14;;;;;;;80.80;43.30;;;;;;;;;;4988594;28;20038;-88
2022/01/25 09:12:40;;;;;;;83.47;42.60;;;;;;;;;;4965044;28;20129;-82
2022/01/25 09:15:06;;;;;;;80.05;41.65;;;;;;;;;;4987974;28;20073;-85
2022/01/25 09:17:32;;;;;;;77.20;39.97;;;;;;;;;;4974121;28;20130;-83
2022/01/25 09:20:01;;;;;;;82.20;43.70;;;;;;;;;;4983129;28;20077;-85
2022/01/25 09:22:27;;;;;;;86.05;44.28;;;;;;;;;;5008250;28;20073;-85
2022/01/25 09:24:53;;;;;;;84.80;46.80;;;;;;;;;;4991660;28;20743;-86
2022/01/25 09:27:19;;;;;;;86.60;41.75;;;;;;;;;;5009754;28;20110;-84
2022/01/25 09:29:45;;;;;;;85.85;45.95;;;;;;;;;;4992386;28;20563;-87
2022/01/25 09:32:11;;;;;;;90.35;45.53;;;;;;;;;;5008513;28;20042;-86
2022/01/25 09:34:37;;;;;;;89.72;45.20;;;;;;;;;;5009933;28;20038;-85
2022/01/25 09:37:04;;;;;;;81.75;40.28;;;;;;;;;;4975029;28;20559;-85
2022/01/25 09:39:30;;;;;;;81.00;42.78;;;;;;;;;;4992497;28;20041;-86
2022/01/25 09:41:56;;;;;;;80.80;42.35;;;;;;;;;;4974375;28;20045;-84
2022/01/25 09:44:23;;;;;;;81.75;43.78;;;;;;;;;;5009926;28;20042;-87
2022/01/25 09:46:53;;;;;;;84.93;44.38;;;;;;;;;;4991934;28;20046;-86
2022/01/25 09:49:19;;;;;;;80.00;40.72;;;;;;;;;;5008520;28;20053;-85
2022/01/25 09:51:45;;;;;;;91.88;46.05;;;;;;;;;;4992621;28;20552;-85
2022/01/25 09:54:11;;;;;;;84.60;44.63;;;;;;;;;;4990168;28;20041;-85
2022/01/25 09:56:37;;;;;;;80.93;42.30;;;;;;;;;;4975759;28;20042;-87
2022/01/25 09:59:03;;;;;;;74.57;38.90;;;;;;;;;;5007397;28;20456;-87
2022/01/25 10:01:30;;;;;;;90.72;43.30;;;;;;;;;;4991500;28;20141;-87
2022/01/25 10:03:58;;;;;;;78.35;42.88;;;;;;;;;;5008904;28;20364;-86
2022/01/25 10:06:30;;;;;;;95.53;45.92;;;;;;;;;;5017459;28;20133;-87
2022/01/25 10:08:58;;;;;;;88.13;43.15;;;;;;;;;;5011201;28;20113;-84
2022/01/25 10:11:25;;;;;;;84.13;43.38;;;;;;;;;;5027757;28;20477;-86
2022/01/25 10:13:57;;;;;;;91.40;46.97;;;;;;;;;;4998071;28;20518;-86
2022/01/25 10:16:37;;;;;;;83.75;44.45;;;;;;;;;;4986605;28;20049;-88
2022/01/25 10:19:06;;;;;;;87.00;43.15;;;;;;;;;;5001818;28;20046;-82
2022/01/25 10:21:33;;;;;;;87.35;44.13;;;;;;;;;;4985997;28;20078;-86
2022/01/25 10:24:01;;;;;;;83.32;41.53;;;;;;;;;;5006933;28;20047;-85
2022/01/25 10:26:29;;;;;;;85.20;43.38;;;;;;;;;;5009526;28;20042;-86
2022/01/25 10:28:56;;;;;;;89.75;44.78;;;;;;;;;;4989235;28;20072;-86
2022/01/25 10:31:32;;;;;;;84.88;42.15;;;;;;;;;;4991526;28;20030;-87
2022/01/25 10:33:58;;;;;;;90.03;44.42;;;;;;;;;;4990066;28;20064;-87
2022/01/25 10:36:24;;;;;;;86.43;43.53;;;;;;;;;;5008640;28;20034;-86
2022/01/25 10:38:53;;;;;;;95.93;45.55;;;;;;;;;;4990310;28;20109;-87
2022/01/25 10:41:20;;;;;;;92.30;44.75;;;;;;;;;;5008102;28;20081;-85
2022/01/25 10:43:48;;;;;;;87.20;44.55;;;;;;;;;;4991081;28;20048;-85
2022/01/25 10:46:15;;;;;;;90.25;44.92;;;;;;;;;;5006882;28;20573;-83
2022/01/25 10:48:46;;;;;;;98.18;45.15;;;;;;;;;;4990853;28;20383;-84
2022/01/25 10:51:21;;;;;;;88.03;43.53;;;;;;;;;;4988542;28;20041;-85
2022/01/25 10:53:55;;;;;;;;;;;5.30;99.90;;;;;;5007645;28;20822;-84
2022/01/25 10:56:23;;;;;;;95.25;43.92;;;;;;;;;;5008735;28;19931;-86
2022/01/25 10:58:49;;;;;;;86.32;43.58;;;;;;;;;;5006805;28;20132;-86
2022/01/25 11:01:29;;;;;;;89.68;43.67;;;;;;;;;;5008589;28;20547;-85
2022/01/25 11:04:02;;;;;;;91.18;44.70;;;;;;;;;;5006186;28;20053;-83
2022/01/25 11:06:29;;;;;;;78.90;41.35;;;;;;;;;;4990931;28;20037;-85
2022/01/25 11:08:59;;;;;;;89.35;43.47;;;;;;;;;;4989666;28;20064;-87
2022/01/25 11:11:32;;;;;;;92.95;45.33;;;;;;;;;;4990167;28;20129;-87
2022/01/25 11:14:50;;;;;;;92.78;45.10;;;;;;;;;;4990318;28;20092;-83
2022/01/25 11:16:44;;;;;;;94.88;44.88;;;;;;;;;;5006031;28;20165;-85
2022/01/25 11:19:10;;;;;;;93.05;44.38;;;;;;;;;;4990838;28;20050;-85
2022/01/25 11:21:37;;;;;;;91.45;44.72;;;;;;;;;;4988892;28;20038;-85
2022/01/25 11:24:03;;;;;;;90.18;45.30;;;;;;;;;;5008206;28;20095;-84
2022/01/25 11:26:29;;;;;;;93.47;45.05;;;;;;;;;;5008064;28;20050;-85
2022/01/25 11:28:55;;;;;;;92.55;44.13;;;;;;;;;;4989699;28;20045;-84
2022/01/25 11:31:24;;;;;;;90.03;44.15;;;;;;;;;;5007665;28;20034;-82
2022/01/25 11:33:51;;;;;;;97.47;45.90;;;;;;;;;;4988302;28;20054;-85
2022/01/25 11:36:19;;;;;;;94.22;46.83;;;;;;;;;;5007892;28;20049;-83
2022/01/25 11:38:50;;;;;;;97.90;46.15;;;;;;;;;;4972125;28;20525;-84
2022/01/25 11:41:18;;;;;;;95.30;45.97;;;;;;;;;;5007042;28;20058;-85
2022/01/25 11:44:04;;;;;;;103.78;46.00;;;;;;;;;;5007293;28;20532;-85
2022/01/25 11:46:30;;;;;;;97.90;45.58;;;;;;;;;;5005247;28;20143;-84
2022/01/25 11:49:00;;;;;;;102.75;47.60;;;;;;;;;;5007494;28;20042;-83
2022/01/25 11:51:26;;;;;;;100.22;47.40;;;;;;;;;;5005740;28;20478;-85
2022/01/25 11:53:52;;;;;;;99.63;45.67;;;;;;;;;;4993669;28;20081;-85
2022/01/25 11:56:18;;;;;;;101.35;47.13;;;;;;;;;;5003507;28;20038;-84
2022/01/25 11:58:53;;;;;;;104.75;46.45;;;;;;;;;;5021713;28;20105;-85
2022/01/25 12:01:20;;;;;;;88.03;44.15;;;;;;;;;;4991446;28;20069;-86
2022/01/25 12:03:47;;;;;;;101.13;46.13;;;;;;;;;;5023821;28;20100;-86
2022/01/25 12:06:29;;;;;;;95.13;44.20;;;;;;;;;;5013782;28;20046;-87
2022/01/25 12:09:31;;;;;;;90.22;41.65;;;;;;;;;;4988628;28;20141;-87
2022/01/25 12:12:18;;;;;;;104.10;45.70;;;;;;;;;;4988901;28;20049;-83
2022/01/25 12:14:50;;;;;;;100.18;45.25;;;;;;;;;;5006779;28;20138;-81
2022/01/25 12:17:18;;;;;;;100.78;46.60;;;;;;;;;;5005654;28;20052;-82
2022/01/25 12:19:48;;;;;;;99.03;47.63;;;;;;;;;;5006720;28;20057;-84
2022/01/25 12:22:28;;;;;;;97.55;46.97;;;;;;;;;;4989756;28;20073;-83
2022/01/25 12:25:19;;;;;;;97.82;45.80;;;;;;;;;;4992609;28;20175;-83
2022/01/25 12:28:00;;;;;;;96.07;43.90;;;;;;;;;;5009881;28;20516;-85
2022/01/25 12:30:26;;;;;;;98.20;44.28;;;;;;;;;;5007285;28;20057;-85
2022/01/25 12:33:02;;;;;;;104.25;47.35;;;;;;;;;;5010210;28;20224;-85
2022/01/25 12:35:52;;;;;;;101.18;46.13;;;;;;;;;;4990975;28;20081;-83
2022/01/25 12:38:23;;;;;;;94.05;44.25;;;;;;;;;;4989249;28;20599;-87
2022/01/25 12:40:51;;;;;;;95.88;45.30;;;;;;;;;;5009315;28;20501;-83
2022/01/25 12:43:22;;;;;;;93.50;44.33;;;;;;;;;;4981824;28;20041;-82
2022/01/25 12:45:48;;;;;;;97.35;46.28;;;;;;;;;;5004581;28;20465;-82
2022/01/25 12:48:16;;;;;;;93.10;46.15;;;;;;;;;;4970816;28;20045;-81
2022/01/25 12:50:43;;;;;;;101.22;45.83;;;;;;;;;;5006897;28;20460;-84
2022/01/25 12:53:11;;;;;;;100.65;45.33;;;;;;;;;;5008286;28;20116;-85
2022/01/25 12:55:42;;;;;;;100.15;44.60;;;;;;;;;;5008937;28;20046;-84
2022/01/25 12:58:08;;;;;;;96.25;45.33;;;;;;;;;;5001844;28;20097;-84
2022/01/25 13:00:36;;;;;;;101.22;48.22;;;;;;;;;;4993249;28;20130;-84
2022/01/25 13:03:15;;;;;;;98.30;44.03;;;;;;;;;;4988506;28;20498;-84
2022/01/25 13:05:43;;;;;;;104.03;47.88;;;;;;;;;;5004818;28;20081;-84
2022/01/25 13:08:34;;;;;;;99.78;46.75;;;;;;;;;;5018040;28;20057;-85
2022/01/25 13:14:34;;;;;;;97.32;46.03;;;;;;;;;;4965061;28;20037;-81
2022/01/25 13:17:03;;;;;;;96.95;46.45;;;;;;;;;;5012745;28;20052;-85
2022/01/25 13:19:33;;;;;;;98.30;46.38;;;;;;;;;;4992004;28;20045;-84
2022/01/25 13:22:02;;;;;;;100.88;46.38;;;;;;;;;;5010199;28;20053;-84
2022/01/25 13:24:32;;;;;;;105.40;47.47;;;;;;;;;;5010375;28;20041;-83
2022/01/25 13:27:04;;;;;;;109.30;49.03;;;;;;;;;;4991702;28;20509;-83
2022/01/25 13:32:23;;;;;;;94.22;45.90;;;;;;;;;;4994415;28;20076;-84
2022/01/25 13:35:01;;;;;;;98.60;46.90;;;;;;;;;;5011252;28;20053;-82
2022/01/25 13:37:27;;;;;;;103.35;46.30;;;;;;;;;;4993989;28;20042;-85
2022/01/25 13:39:59;;;;;;;108.20;48.50;;;;;;;;;;5008164;28;20061;-84
2022/01/25 13:42:37;;;;;;;105.28;47.33;;;;;;;;;;5000797;28;20054;-85
2022/01/25 13:47:56;;;;;;;96.65;46.25;;;;;;;;;;5009022;28;20054;-81
2022/01/25 13:50:22;;;;;;;99.35;45.50;;;;;;;;;;4993996;28;20043;-84
2022/01/25 13:52:51;;;;;;;108.88;49.40;;;;;;;;;;5002497;28;20041;-85
2022/01/25 13:55:17;;;;;;;101.25;46.40;;;;;;;;;;5008010;28;20049;-85
2022/01/25 13:57:43;;;;;;;106.43;48.28;;;;;;;;;;5004527;28;20069;-84
2022/01/25 14:00:11;;;;;;;108.18;49.55;;;;;;;;;;5008064;28;20093;-83
2022/01/25 14:02:37;;;;;;;98.07;47.03;;;;;;;;;;5020539;28;20101;-84
2022/01/25 14:05:04;;;;;;;102.85;47.83;;;;;;;;;;5011091;28;20050;-85
2022/01/25 14:07:35;;;;;;;99.18;45.88;;;;;;;;;;4991046;28;20088;-85
2022/01/25 14:10:06;;;;;;;108.93;48.97;;;;;;;;;;5007967;28;20096;-85
2022/01/25 14:23:34;;;;;;;103.88;48.30;;;;;;;;;;5005149;28;20073;-84
2022/01/25 14:26:00;;;;;;;101.93;46.53;;;;;;;;;;5007335;28;20049;-84
2022/01/25 14:28:26;;;;;;;95.28;46.33;;;;;;;;;;5004760;28;20049;-82
2022/01/25 14:31:02;;;;;;;100.82;47.40;;;;;;;;;;5006405;28;20077;-85
2022/01/25 14:33:32;;;;;;;99.50;47.53;;;;;;;;;;5004390;28;20410;-86
2022/01/25 14:36:04;;;;;;;118.40;48.45;;;;;;;;;;5006302;28;20049;-83
2022/01/25 14:38:30;;;;;;;104.55;48.60;;;;;;;;;;5007282;28;20050;-85
2022/01/25 14:40:58;;;;;;;108.18;47.53;;;;;;;;;;5005481;28;20038;-82
2022/01/25 14:43:57;;;;;;;99.43;46.00;;;;;;;;;;5006764;28;20183;-83
2022/01/25 14:46:25;;;;;;;109.88;47.45;;;;;;;;;;4951743;28;20058;-84
2022/01/25 14:48:57;;;;;;;110.25;46.10;;;;;;;;;;5006259;28;20049;-84
2022/01/25 14:51:31;;;;;;;106.28;47.85;;;;;;;;;;4988857;28;20580;-84
2022/01/25 14:53:59;;;;;;;97.80;44.90;;;;;;;;;;5005534;28;20049;-84
2022/01/25 14:56:29;;;;;;;90.13;43.03;;;;;;;;;;5006598;28;20091;-85
2022/01/25 15:01:22;;;;;;;91.47;44.25;;;;;;;;;;5006555;28;20081;-84
2022/01/25 15:03:49;;;;;;;96.80;45.15;;;;;;;;;;4970400;28;20143;-85
2022/01/25 15:06:30;;;;;;;100.13;45.70;;;;;;;;;;4988809;28;20092;-86
2022/01/25 15:08:58;;;;;;;103.18;44.08;;;;;;;;;;4970063;28;20042;-88
2022/01/25 15:11:30;;;;;;;101.40;42.33;;;;;;;;;;4985443;28;20658;-89
2022/01/25 15:14:17;;;;;;;97.38;44.60;;;;;;;;;;4970978;28;20498;-88
2022/01/25 15:16:56;;;;;;;100.38;45.40;;;;;;;;;;5003849;28;20041;-89
2022/01/25 15:19:22;;;;;;;96.07;44.97;;;;;;;;;;4987820;28;20072;-89
2022/01/25 15:21:54;;;;;;;98.60;46.78;;;;;;;;;;5005608;28;20081;-86
2022/01/25 15:24:27;;;;;;;103.55;44.58;;;;;;;;;;4982735;28;20468;-89
2022/01/25 15:27:07;;;;;;;98.70;45.05;;;;;;;;;;5000187;28;20100;-89
2022/01/25 15:29:33;;;;;;;94.75;42.55;;;;;;;;;;4988723;28;21249;-88
2022/01/25 15:32:00;;;;;;;94.50;44.88;;;;;;;;;;4988061;28;20045;-90
2022/01/25 15:34:40;;;;;;;93.40;44.10;;;;;;;;;;4971747;28;20057;-89
2022/01/25 15:37:14;;;;;;;95.82;42.95;;;;;;;;;;4971316;28;20042;-89
2022/01/25 15:39:49;;;;;;;94.93;43.38;;;;;;;;;;4990457;28;20057;-90
2022/01/25 15:42:20;;;;;;;89.20;42.55;;;;;;;;;;5128554;23;20072;-88
2022/01/25 15:47:41;;;;;;;96.32;44.90;;;;;;;;;;5023228;28;20041;-89
2022/01/25 15:50:08;;;;;;;92.50;44.60;;;;;;;;;;4961202;28;20046;-89
2022/01/25 15:52:35;;;;;;;96.45;45.28;;;;;;;;;;4940989;28;20058;-89
2022/01/25 15:55:05;;;;;;;100.45;45.75;;;;;;;;;;4952863;28;20062;-89
2022/01/25 15:57:45;;;;;;;100.75;46.33;;;;;;;;;;4988161;28;20666;-88
2022/01/25 16:00:12;;;;;;;103.43;44.88;;;;;;;;;;4969216;28;20149;-88
2022/01/25 16:02:38;;;;;;;93.90;45.58;;;;;;;;;;4969142;28;20061;-88
2022/01/25 16:05:23;;;;;;;93.38;45.50;;;;;;;;;;4971824;28;20050;-89
2022/01/25 16:07:49;;;;;;;;;;;;;;;;;;4970305;28;20092;-89
2022/01/25 16:10:15;;;;;;;87.38;39.70;;;;;;;;;;4988132;28;19984;-88
2022/01/25 16:12:54;;;;;;;103.45;48.90;;;;;;;;;;4967909;28;20043;-89
2022/01/25 16:15:29;;;;;;;93.15;44.72;;;;;;;;;;4951747;28;20588;-88
2022/01/25 16:17:55;;;;;;;95.85;45.20;;;;;;;;;;4962739;28;20176;-88
2022/01/25 16:20:21;;;;;;;101.85;47.28;;;;;;;;;;4973440;28;20049;-88
2022/01/25 16:22:47;;;;;;;102.47;46.88;;;;;;;;;;4990971;28;20042;-89
2022/01/25 16:25:14;;;;;;;104.97;47.60;;;;;;;;;;4977965;28;20329;-88
2022/01/25 16:27:40;;;;;;;92.90;42.65;;;;;;;;;;4974586;28;20053;-89
2022/01/25 16:30:06;;;;;;;99.15;46.17;;;;;;;;;;4971484;28;20046;-89
2022/01/25 16:32:41;;;;;;;103.53;48.92;;;;;;;;;;4980389;28;20053;-88
2022/01/25 16:35:08;;;;;;;95.25;45.83;;;;;;;;;;4954666;28;20137;-87